createdAt,value
2023-09-05T00:01:34.433Z,23.77
2023-09-05T00:03:36.003Z,23.75
2023-09-05T00:05:37.625Z,23.74
2023-09-05T00:07:40.013Z,23.75
2023-09-05T00:09:41.461Z,23.75
2023-09-05T00:11:42.981Z,23.74
2023-09-05T00:13:44.518Z,23.74
2023-09-05T00:15:46.044Z,23.73
2023-09-05T00:17:47.629Z,23.72
2023-09-05T00:19:50.093Z,23.72
2023-09-05T00:21:51.608Z,23.73
2023-09-05T00:23:53.100Z,23.72
2023-09-05T00:25:54.609Z,23.73
2023-09-05T00:27:56.140Z,23.72
2023-09-05T00:29:58.467Z,23.71
2023-09-05T00:32:04.507Z,23.71
2023-09-05T00:34:06.029Z,23.71
2023-09-05T00:36:07.540Z,23.70
2023-09-05T00:38:09.000Z,23.69
2023-09-05T00:40:10.882Z,23.69
2023-09-05T00:42:13.352Z,23.69
2023-09-05T00:44:15.322Z,23.68
2023-09-05T00:46:17.893Z,23.68
2023-09-05T00:48:28.593Z,23.66
2023-09-05T00:50:30.104Z,23.67
2023-09-05T00:52:31.737Z,23.66
2023-09-05T00:54:33.472Z,23.65
2023-09-05T00:56:36.506Z,23.65
2023-09-05T00:58:38.126Z,23.63
2023-09-05T01:00:39.752Z,23.62
2023-09-05T01:02:42.400Z,23.63
2023-09-05T01:04:44.451Z,23.61
2023-09-05T01:07:05.008Z,23.60
2023-09-05T01:09:21.818Z,23.61
2023-09-05T01:11:23.773Z,23.60
2023-09-05T01:13:28.782Z,23.60
2023-09-05T01:15:30.252Z,23.58
2023-09-05T01:17:31.738Z,23.57
2023-09-05T01:19:37.528Z,23.57
2023-09-05T01:21:42.183Z,23.59
2023-09-05T01:23:45.916Z,23.57
2023-09-05T01:25:47.847Z,23.56
2023-09-05T01:27:49.864Z,23.56
2023-09-05T01:29:52.078Z,23.55
2023-09-05T01:31:54.561Z,23.55
2023-09-05T01:33:56.035Z,23.54
2023-09-05T01:35:57.603Z,23.53
2023-09-05T01:37:59.320Z,23.52
2023-09-05T01:40:00.817Z,23.52
2023-09-05T01:42:02.344Z,23.51
2023-09-05T01:44:04.004Z,23.50
2023-09-05T01:46:05.642Z,23.50
2023-09-05T01:48:07.388Z,23.49
2023-09-05T01:50:09.137Z,23.50
2023-09-05T01:52:10.629Z,23.49
2023-09-05T01:54:12.096Z,23.47
2023-09-05T01:56:13.613Z,23.47
2023-09-05T01:58:15.106Z,23.47
2023-09-05T02:00:19.054Z,23.47
2023-09-05T02:02:20.632Z,23.45
2023-09-05T02:04:22.326Z,23.45
2023-09-05T02:06:24.004Z,23.45
2023-09-05T02:08:25.517Z,23.45
2023-09-05T02:10:27.002Z,23.43
2023-09-05T02:12:29.002Z,23.42
2023-09-05T02:16:37.310Z,23.41
2023-09-05T02:18:38.804Z,23.41
2023-09-05T02:20:43.388Z,23.40
2023-09-05T02:22:45.382Z,23.40
2023-09-05T02:24:46.876Z,23.39
2023-09-05T02:31:04.862Z,23.38
2023-09-05T02:33:09.879Z,23.37
2023-09-05T02:35:13.648Z,23.37
2023-09-05T02:37:15.342Z,23.37
2023-09-05T02:39:16.793Z,23.38
2023-09-05T02:41:18.588Z,23.35
2023-09-05T02:43:20.052Z,23.35
2023-09-05T02:45:21.617Z,23.34
2023-09-05T02:47:23.599Z,23.33
2023-09-05T02:51:31.470Z,23.34
2023-09-05T02:53:33.581Z,23.32
2023-09-05T02:55:35.510Z,23.32
2023-09-05T02:57:37.037Z,23.32
2023-09-05T02:59:38.664Z,23.31
2023-09-05T03:05:53.973Z,23.29
2023-09-05T03:07:56.193Z,23.29
2023-09-05T03:09:57.674Z,23.28
2023-09-05T03:18:19.889Z,23.26
2023-09-05T03:20:26.771Z,23.25
2023-09-05T03:22:28.280Z,23.25
2023-09-05T03:24:29.866Z,23.25
2023-09-05T03:28:42.312Z,23.23
2023-09-05T03:30:43.884Z,23.23
2023-09-05T03:32:45.458Z,23.23
2023-09-05T03:34:50.102Z,23.21
2023-09-05T03:36:51.787Z,23.21
2023-09-05T03:38:53.296Z,23.20
2023-09-05T03:40:55.913Z,23.20
2023-09-05T03:42:57.496Z,23.18
2023-09-05T03:44:59.161Z,23.19
2023-09-05T03:47:00.721Z,23.18
2023-09-05T03:49:02.459Z,23.18
2023-09-05T03:51:04.059Z,23.17
2023-09-05T03:55:11.941Z,23.14
2023-09-05T03:57:13.586Z,23.15
2023-09-05T03:59:15.577Z,23.13
2023-09-05T04:01:17.515Z,23.13
2023-09-05T04:03:19.075Z,23.12
2023-09-05T04:05:22.137Z,23.11
2023-09-05T04:07:24.209Z,23.11
2023-09-05T04:09:25.740Z,23.10
2023-09-05T04:11:27.245Z,23.10
2023-09-05T04:13:29.009Z,23.09
2023-09-05T04:15:30.634Z,23.08
2023-09-05T04:17:32.144Z,23.08
2023-09-05T04:19:33.810Z,23.09
2023-09-05T04:21:35.856Z,23.08
2023-09-05T04:23:37.545Z,23.08
2023-09-05T04:25:41.225Z,23.08
2023-09-05T04:27:42.836Z,23.08
2023-09-05T04:29:44.494Z,23.07
2023-09-05T04:31:46.122Z,23.07
2023-09-05T04:33:49.671Z,23.06
2023-09-05T04:35:51.246Z,23.06
2023-09-05T04:37:54.003Z,23.06
2023-09-05T04:39:56.004Z,23.06
2023-09-05T04:41:57.626Z,23.06
2023-09-05T04:43:59.118Z,23.05
2023-09-05T04:46:00.688Z,23.05
2023-09-05T04:52:13.162Z,23.03
2023-09-05T04:54:14.675Z,23.03
2023-09-05T04:56:16.136Z,23.03
2023-09-05T05:02:32.865Z,23.02
2023-09-05T05:04:34.329Z,23.02
2023-09-05T05:06:35.778Z,23.02
2023-09-05T05:08:37.289Z,23.02
2023-09-05T05:12:45.670Z,23.01
2023-09-05T05:14:47.156Z,23.01
2023-09-05T05:16:50.394Z,23.00
2023-09-05T05:18:51.932Z,23.00
2023-09-05T05:20:53.459Z,23.00
2023-09-05T05:22:55.072Z,23.00
2023-09-05T05:24:56.636Z,23.00
2023-09-05T05:26:58.489Z,22.97
2023-09-05T05:28:59.955Z,22.98
2023-09-05T05:31:01.504Z,22.98
2023-09-05T05:33:03.976Z,22.98
2023-09-05T05:37:12.182Z,22.97
2023-09-05T05:39:13.746Z,22.98
2023-09-05T05:41:15.640Z,22.98
2023-09-05T05:43:17.165Z,22.97
2023-09-05T05:45:18.657Z,22.96
2023-09-05T05:47:20.121Z,22.97
2023-09-05T05:49:21.646Z,22.97
2023-09-05T05:51:23.429Z,22.95
2023-09-05T05:53:25.562Z,22.97
2023-09-05T05:55:27.049Z,22.97
2023-09-05T05:57:28.754Z,22.97
2023-09-05T05:59:30.338Z,22.96
2023-09-05T06:01:33.375Z,22.95
2023-09-05T06:03:37.882Z,22.97
2023-09-05T06:05:39.626Z,22.96
2023-09-05T06:07:41.200Z,22.96
2023-09-05T06:09:42.812Z,22.95
2023-09-05T06:11:44.289Z,22.87
2023-09-05T06:13:45.822Z,22.97
2023-09-05T06:15:47.564Z,22.97
2023-09-05T06:17:49.138Z,22.96
2023-09-05T06:19:51.450Z,22.96
2023-09-05T06:21:53.329Z,22.96
2023-09-05T06:23:54.857Z,22.96
2023-09-05T06:25:56.502Z,22.95
2023-09-05T06:27:58.030Z,22.96
2023-09-05T06:29:59.610Z,22.95
2023-09-05T06:32:01.146Z,22.96
2023-09-05T06:34:02.916Z,22.95
2023-09-05T06:36:07.974Z,22.97
2023-09-05T06:38:09.406Z,22.96
2023-09-05T06:40:14.110Z,22.96
2023-09-05T06:42:17.796Z,22.96
2023-09-05T06:44:19.292Z,22.96
2023-09-05T06:46:20.881Z,22.95
2023-09-05T06:48:22.344Z,22.95
2023-09-05T06:50:24.968Z,22.96
2023-09-05T06:52:26.534Z,22.97
2023-09-05T06:54:28.087Z,22.96
2023-09-05T06:56:29.680Z,22.97
2023-09-05T06:58:31.236Z,22.95
2023-09-05T07:00:34.846Z,22.95
2023-09-05T07:02:36.421Z,22.97
2023-09-05T07:04:40.977Z,22.96
2023-09-05T07:06:42.512Z,22.97
2023-09-05T07:08:43.956Z,22.97
2023-09-05T07:10:46.182Z,22.97
2023-09-05T07:12:47.680Z,22.97
2023-09-05T07:14:49.924Z,22.98
2023-09-05T07:16:51.486Z,22.98
2023-09-05T07:18:53.137Z,22.98
2023-09-05T07:20:54.704Z,22.98
2023-09-05T07:22:56.295Z,22.97
2023-09-05T07:24:57.846Z,22.98
2023-09-05T07:26:59.381Z,23.00
2023-09-05T07:29:00.876Z,23.01
2023-09-05T07:31:02.688Z,23.02
2023-09-05T07:33:04.458Z,23.04
2023-09-05T07:35:06.222Z,23.04
2023-09-05T07:37:07.792Z,23.03
2023-09-05T07:39:11.233Z,23.06
2023-09-05T07:41:12.773Z,23.07
2023-09-05T07:43:14.287Z,23.09
2023-09-05T07:45:15.754Z,23.10
2023-09-05T07:47:17.368Z,23.12
2023-09-05T07:49:19.698Z,23.12
2023-09-05T07:51:23.960Z,23.14
2023-09-05T07:53:26.057Z,23.16
2023-09-05T07:55:27.548Z,23.18
2023-09-05T07:57:29.270Z,23.20
2023-09-05T07:59:32.395Z,23.21
2023-09-05T08:01:34.092Z,23.20
2023-09-05T08:03:35.697Z,23.21
2023-09-05T08:05:37.770Z,23.23
2023-09-05T08:07:39.577Z,23.25
2023-09-05T08:09:41.044Z,23.26
2023-09-05T08:11:42.631Z,23.28
2023-09-05T08:13:44.151Z,23.30
2023-09-05T08:15:46.051Z,23.31
2023-09-05T08:17:48.731Z,23.33
2023-09-05T08:19:50.254Z,23.33
2023-09-05T08:21:52.193Z,23.35
2023-09-05T08:23:54.037Z,23.35
2023-09-05T08:25:57.677Z,23.37
2023-09-05T08:27:59.414Z,23.39
2023-09-05T08:30:00.957Z,23.38
2023-09-05T08:32:02.844Z,23.38
2023-09-05T08:34:04.536Z,23.39
2023-09-05T08:36:06.730Z,23.40
2023-09-05T08:38:08.287Z,23.42
2023-09-05T08:40:10.164Z,23.42
2023-09-05T08:42:12.292Z,23.45
2023-09-05T08:44:13.793Z,23.45
2023-09-05T08:46:15.834Z,23.47
2023-09-05T08:48:17.397Z,23.48
2023-09-05T08:50:18.938Z,23.49
2023-09-05T08:52:23.273Z,23.50
2023-09-05T08:54:26.089Z,23.50
2023-09-05T08:56:27.742Z,23.52
2023-09-05T08:58:30.160Z,23.53
2023-09-05T09:00:33.279Z,23.53
2023-09-05T09:02:38.237Z,23.55
2023-09-05T09:04:52.631Z,23.57
2023-09-05T09:06:59.221Z,23.58
2023-09-05T09:09:00.896Z,23.60
2023-09-05T09:11:07.085Z,23.62
2023-09-05T09:13:15.878Z,23.63
2023-09-05T09:15:17.534Z,23.60
2023-09-05T09:17:19.799Z,23.62
2023-09-05T09:19:21.305Z,23.64
2023-09-05T09:21:27.129Z,23.65
2023-09-05T09:23:29.898Z,23.68
2023-09-05T09:25:31.416Z,23.69
2023-09-05T09:27:32.914Z,23.70
2023-09-05T09:29:34.435Z,23.70
2023-09-05T09:31:36.331Z,23.70
2023-09-05T09:33:38.324Z,23.74
2023-09-05T09:35:39.857Z,23.76
2023-09-05T09:37:41.396Z,23.74
2023-09-05T09:39:43.026Z,23.74
2023-09-05T09:41:45.302Z,23.75
2023-09-05T09:43:54.531Z,23.79
2023-09-05T09:45:57.889Z,23.80
2023-09-05T09:48:01.786Z,23.81
2023-09-05T09:50:03.476Z,23.81
2023-09-05T09:52:05.718Z,23.82
2023-09-05T09:54:08.062Z,23.83
2023-09-05T09:56:10.873Z,23.85
2023-09-05T09:58:15.205Z,23.84
2023-09-05T10:00:19.530Z,23.85
2023-09-05T10:02:22.034Z,23.87
2023-09-05T10:04:24.696Z,23.88
2023-09-05T10:06:27.603Z,23.88
2023-09-05T10:08:30.083Z,23.92
2023-09-05T10:10:32.368Z,23.83
2023-09-05T10:12:35.489Z,23.93
2023-09-05T10:14:38.431Z,23.94
2023-09-05T10:16:40.775Z,23.95
2023-09-05T10:18:44.769Z,23.97
2023-09-05T10:20:47.639Z,24.00
2023-09-05T10:22:49.062Z,24.02
2023-09-05T10:24:51.205Z,24.01
2023-09-05T10:26:52.846Z,24.03
2023-09-05T10:28:57.421Z,24.04
2023-09-05T10:31:06.424Z,24.04
2023-09-05T10:33:11.114Z,24.07
2023-09-05T10:35:17.447Z,24.09
2023-09-05T10:37:19.470Z,24.11
2023-09-05T10:39:28.639Z,24.11
2023-09-05T10:41:38.945Z,24.11
2023-09-05T10:43:54.359Z,24.12
2023-09-05T10:45:57.396Z,24.14
2023-09-05T10:48:01.283Z,24.16
2023-09-05T10:50:07.067Z,24.18
2023-09-05T10:52:15.777Z,24.20
2023-09-05T10:54:27.392Z,24.21
2023-09-05T10:56:39.246Z,24.22
2023-09-05T10:58:46.742Z,24.28
2023-09-05T11:00:49.544Z,24.51
2023-09-05T11:02:51.592Z,24.86
2023-09-05T11:04:56.430Z,25.11
2023-09-05T11:06:59.543Z,25.23
2023-09-05T11:09:08.498Z,25.42
2023-09-05T11:11:10.117Z,25.54
2023-09-05T11:13:13.219Z,25.67
2023-09-05T11:15:14.847Z,25.84
2023-09-05T11:17:17.241Z,25.93
2023-09-05T11:19:43.240Z,25.99
2023-09-05T11:21:45.289Z,26.17
2023-09-05T11:23:54.195Z,26.29
2023-09-05T11:25:56.973Z,26.32
2023-09-05T11:28:01.490Z,26.35
2023-09-05T11:30:05.460Z,26.43
2023-09-05T11:32:07.406Z,26.38
2023-09-05T11:34:08.953Z,26.36
2023-09-05T11:36:10.479Z,26.40
2023-09-05T11:38:12.405Z,26.42
2023-09-05T11:40:14.673Z,26.49
2023-09-05T11:42:16.924Z,26.54
2023-09-05T11:44:30.226Z,26.50
2023-09-05T11:46:34.878Z,26.54
2023-09-05T11:48:36.667Z,26.51
2023-09-05T11:50:39.855Z,26.53
2023-09-05T11:52:41.530Z,26.57
2023-09-05T11:54:43.743Z,26.60
2023-09-05T11:56:45.470Z,26.62
2023-09-05T11:58:46.998Z,26.68
2023-09-05T12:00:51.469Z,26.68
2023-09-05T12:02:54.339Z,26.68
2023-09-05T12:04:56.558Z,26.63
2023-09-05T12:06:58.068Z,26.58
2023-09-05T12:08:59.646Z,26.65
2023-09-05T12:11:01.305Z,26.69
2023-09-05T12:13:04.465Z,26.76
2023-09-05T12:15:06.293Z,26.80
2023-09-05T12:17:09.208Z,26.81
2023-09-05T12:19:10.738Z,26.81
2023-09-05T12:21:12.222Z,26.84
2023-09-05T12:23:23.006Z,26.82
2023-09-05T12:25:35.900Z,26.84
2023-09-05T12:27:45.322Z,26.91
2023-09-05T12:29:46.902Z,26.95
2023-09-05T12:31:51.536Z,26.99
2023-09-05T12:33:56.936Z,27.02
2023-09-05T12:35:58.516Z,27.02
2023-09-05T12:38:01.016Z,27.06
2023-09-05T12:40:02.607Z,27.09
2023-09-05T12:42:04.266Z,27.14
2023-09-05T12:44:07.657Z,27.14
2023-09-05T12:46:09.198Z,27.16
2023-09-05T12:48:10.785Z,27.20
2023-09-05T12:50:16.368Z,27.21
2023-09-05T12:52:22.098Z,27.23
2023-09-05T12:54:23.751Z,27.23
2023-09-05T12:56:25.312Z,27.24
2023-09-05T12:58:27.863Z,27.29
2023-09-05T13:00:30.272Z,27.30
2023-09-05T13:02:31.813Z,27.27
2023-09-05T13:04:33.699Z,27.32
2023-09-05T13:06:35.282Z,27.33
2023-09-05T13:08:36.842Z,27.35
2023-09-05T13:10:38.792Z,27.35
2023-09-05T13:12:40.409Z,27.37
2023-09-05T13:14:43.875Z,27.41
2023-09-05T13:16:45.465Z,27.45
2023-09-05T13:18:46.981Z,27.48
2023-09-05T13:22:54.863Z,27.52
2023-09-05T13:24:56.352Z,27.50
2023-09-05T13:26:59.944Z,27.50
2023-09-05T13:29:01.504Z,27.54
2023-09-05T13:31:03.055Z,27.58
2023-09-05T13:37:19.513Z,27.67
2023-09-05T13:39:21.060Z,27.67
2023-09-05T13:41:22.677Z,27.69
2023-09-05T13:43:24.189Z,27.67
2023-09-05T13:45:25.973Z,27.70
2023-09-05T13:47:28.155Z,27.71
2023-09-05T13:49:29.774Z,27.76
2023-09-05T13:51:33.834Z,27.81
2023-09-05T13:53:35.414Z,27.83
2023-09-05T13:55:37.037Z,27.81
2023-09-05T13:57:38.641Z,27.83
2023-09-05T13:59:40.174Z,27.87
2023-09-05T14:01:41.813Z,27.87
2023-09-05T14:03:43.333Z,27.89
2023-09-05T14:05:44.874Z,27.89
2023-09-05T14:07:46.419Z,27.92
2023-09-05T14:09:47.933Z,27.85
2023-09-05T14:11:49.488Z,27.97
2023-09-05T14:13:51.040Z,28.00
2023-09-05T14:15:52.799Z,27.98
2023-09-05T14:17:54.617Z,28.04
2023-09-05T14:22:02.639Z,28.13
2023-09-05T14:24:04.242Z,28.15
2023-09-05T14:26:05.757Z,28.17
2023-09-05T14:28:07.330Z,28.19
2023-09-05T14:30:09.186Z,28.19
2023-09-05T14:32:10.875Z,28.19
2023-09-05T14:34:12.961Z,28.24
2023-09-05T14:36:14.698Z,28.32
2023-09-05T14:38:16.192Z,28.39
2023-09-05T14:40:17.694Z,28.45
2023-09-05T14:42:19.317Z,28.51
2023-09-05T14:44:21.162Z,28.59
2023-09-05T14:46:24.976Z,28.65
2023-09-05T14:48:27.430Z,28.68
2023-09-05T14:50:29.194Z,28.70
2023-09-05T14:52:31.826Z,28.72
2023-09-05T14:54:33.358Z,28.74
2023-09-05T14:56:34.948Z,28.78
2023-09-05T14:58:36.725Z,28.81
2023-09-05T15:00:38.238Z,28.84
2023-09-05T15:02:40.022Z,28.81
2023-09-05T15:04:41.661Z,28.75
2023-09-05T15:06:43.485Z,28.75
2023-09-05T15:08:45.063Z,28.74
2023-09-05T15:10:46.553Z,28.79
2023-09-05T15:12:48.160Z,28.84
2023-09-05T15:14:49.868Z,28.87
2023-09-05T15:16:55.950Z,28.82
2023-09-05T15:18:57.669Z,28.83
2023-09-05T15:20:59.335Z,28.85
2023-09-05T15:23:01.005Z,28.89
2023-09-05T15:25:19.145Z,28.90
2023-09-05T15:27:20.670Z,28.87
2023-09-05T15:29:22.302Z,28.90
2023-09-05T15:31:24.025Z,28.92
2023-09-05T15:33:25.713Z,28.92
2023-09-05T15:35:28.456Z,28.94
2023-09-05T15:37:29.946Z,28.94
2023-09-05T15:39:31.549Z,28.92
2023-09-05T15:41:33.064Z,28.92
2023-09-05T15:43:34.549Z,28.92
2023-09-05T15:45:36.232Z,28.91
2023-09-05T15:47:37.747Z,28.91
2023-09-05T15:49:39.314Z,28.88
2023-09-05T15:51:40.838Z,28.91
2023-09-05T15:53:44.343Z,28.92
2023-09-05T15:55:45.840Z,28.92
2023-09-05T15:57:47.308Z,28.91
2023-09-05T15:59:50.896Z,28.88
2023-09-05T16:01:54.143Z,28.86
2023-09-05T16:03:55.956Z,28.92
2023-09-05T16:06:00.071Z,28.97
2023-09-05T16:08:01.959Z,29.00
2023-09-05T16:10:05.878Z,29.01
2023-09-05T16:12:09.306Z,28.97
2023-09-05T16:14:10.841Z,28.98
2023-09-05T16:16:16.705Z,28.98
2023-09-05T16:18:18.419Z,29.05
2023-09-05T16:20:20.206Z,29.11
2023-09-05T16:22:21.730Z,29.10
2023-09-05T16:24:23.604Z,29.15
2023-09-05T16:26:30.654Z,29.14
2023-09-05T16:28:32.374Z,29.09
2023-09-05T16:30:33.949Z,29.10
2023-09-05T16:32:36.162Z,29.12
2023-09-05T16:34:37.708Z,29.10
2023-09-05T16:36:39.468Z,29.11
2023-09-05T16:38:41.242Z,29.18
2023-09-05T16:40:42.890Z,29.20
2023-09-05T16:42:44.602Z,29.19
2023-09-05T16:44:47.086Z,29.19
2023-09-05T16:46:48.592Z,29.12
2023-09-05T16:48:50.270Z,29.10
2023-09-05T16:50:52.245Z,29.10
2023-09-05T16:52:53.748Z,29.08
2023-09-05T16:54:55.294Z,29.05
2023-09-05T16:56:56.913Z,29.07
2023-09-05T16:59:00.408Z,29.09
2023-09-05T17:01:03.194Z,29.08
2023-09-05T17:03:06.348Z,29.03
2023-09-05T17:05:08.095Z,29.05
2023-09-05T17:07:09.633Z,29.06
2023-09-05T17:09:11.253Z,29.13
2023-09-05T17:11:12.797Z,29.15
2023-09-05T17:13:14.467Z,29.17
2023-09-05T17:15:16.448Z,29.12
2023-09-05T17:17:18.060Z,29.08
2023-09-05T17:19:19.521Z,29.16
2023-09-05T17:21:21.149Z,29.25
2023-09-05T17:23:23.275Z,29.26
2023-09-05T17:25:24.815Z,29.26
2023-09-05T17:27:26.470Z,29.32
2023-09-05T17:29:28.229Z,29.35
2023-09-05T17:31:30.023Z,29.34
2023-09-05T17:33:32.195Z,29.24
2023-09-05T17:35:34.321Z,29.25
2023-09-05T17:37:36.631Z,29.28
2023-09-05T17:39:40.081Z,29.25
2023-09-05T17:41:41.672Z,29.28
2023-09-05T17:43:43.202Z,29.29
2023-09-05T17:45:44.754Z,29.24
2023-09-05T17:47:46.555Z,29.22
2023-09-05T17:49:48.268Z,29.22
2023-09-05T17:51:50.515Z,29.30
2023-09-05T17:53:52.094Z,29.24
2023-09-05T17:55:53.617Z,29.24
2023-09-05T17:57:55.253Z,29.13
2023-09-05T17:59:56.904Z,29.13
2023-09-05T18:01:58.499Z,29.15
2023-09-05T18:04:00.337Z,29.05
2023-09-05T18:06:02.274Z,28.90
2023-09-05T18:08:03.883Z,28.90
2023-09-05T18:10:05.877Z,28.85
2023-09-05T18:12:07.422Z,28.80
2023-09-05T18:14:13.403Z,28.77
2023-09-05T18:16:16.329Z,28.71
2023-09-05T18:18:17.957Z,28.69
2023-09-05T18:20:19.578Z,28.70
2023-09-05T18:22:21.395Z,28.68
2023-09-05T18:24:22.866Z,28.68
2023-09-05T18:26:24.408Z,28.64
2023-09-05T18:28:26.200Z,28.62
2023-09-05T18:30:28.054Z,28.58
2023-09-05T18:32:29.639Z,28.52
2023-09-05T18:34:35.157Z,28.48
2023-09-05T18:36:36.687Z,28.46
2023-09-05T18:38:41.421Z,28.41
2023-09-05T18:40:43.087Z,28.38
2023-09-05T18:42:44.660Z,28.32
2023-09-05T18:44:46.260Z,28.19
2023-09-05T18:46:47.828Z,28.29
2023-09-05T18:48:49.436Z,28.28
2023-09-05T18:50:51.746Z,28.26
2023-09-05T18:52:53.365Z,28.24
2023-09-05T18:54:55.793Z,28.23
2023-09-05T18:56:58.014Z,28.23
2023-09-05T18:58:59.466Z,28.21
2023-09-05T19:01:00.926Z,28.19
2023-09-05T19:03:02.716Z,28.18
2023-09-05T19:05:04.633Z,28.17
2023-09-05T19:07:06.201Z,28.17
2023-09-05T19:09:07.685Z,28.16
2023-09-05T19:11:09.360Z,28.17
2023-09-05T19:13:14.199Z,28.15
2023-09-05T19:15:15.990Z,28.13
2023-09-05T19:17:17.624Z,28.09
2023-09-05T19:19:19.083Z,28.08
2023-09-05T19:21:20.569Z,28.07
2023-09-05T19:23:22.866Z,28.05
2023-09-05T19:25:24.297Z,28.02
2023-09-05T19:27:25.856Z,28.03
2023-09-05T19:29:29.648Z,28.00
2023-09-05T19:31:31.462Z,28.00
2023-09-05T19:33:33.110Z,27.98
2023-09-05T19:35:34.627Z,27.98
2023-09-05T19:37:39.260Z,27.99
2023-09-05T19:39:41.961Z,27.99
2023-09-05T19:41:44.136Z,27.99
2023-09-05T19:43:49.869Z,27.98
2023-09-05T19:45:52.880Z,27.98
2023-09-05T19:47:55.225Z,27.98
2023-09-05T19:49:57.003Z,27.96
2023-09-05T19:51:58.553Z,27.96
2023-09-05T19:54:00.239Z,27.94
2023-09-05T19:56:01.833Z,27.91
2023-09-05T19:58:04.403Z,27.89
2023-09-05T20:00:13.016Z,27.90
2023-09-05T20:02:14.874Z,27.90
2023-09-05T20:04:16.621Z,27.89
2023-09-05T20:06:18.254Z,27.90
2023-09-05T20:08:19.821Z,27.90
2023-09-05T20:10:23.333Z,27.89
2023-09-05T20:12:24.959Z,27.90
2023-09-05T20:14:26.498Z,27.87
2023-09-05T20:16:28.295Z,27.86
2023-09-05T20:18:30.283Z,27.86
2023-09-05T20:20:32.496Z,27.84
2023-09-05T20:22:34.039Z,27.82
2023-09-05T20:24:35.775Z,27.81
2023-09-05T20:26:37.352Z,27.80
2023-09-05T20:28:38.962Z,27.84
2023-09-05T20:30:40.951Z,27.84
2023-09-05T20:32:42.600Z,27.85
2023-09-05T20:34:44.273Z,27.84
2023-09-05T20:36:45.768Z,27.83
2023-09-05T20:38:47.626Z,27.82
2023-09-05T20:40:49.211Z,27.82
2023-09-05T20:42:50.744Z,27.82
2023-09-05T20:44:53.149Z,27.81
2023-09-05T20:46:54.734Z,27.76
2023-09-05T20:48:56.363Z,27.71
2023-09-05T20:50:58.099Z,27.71
2023-09-05T20:52:59.833Z,27.72
2023-09-05T20:55:01.533Z,27.70
2023-09-05T20:57:03.478Z,27.68
2023-09-05T20:59:05.199Z,27.70
2023-09-05T21:01:06.834Z,27.70
2023-09-05T21:03:08.541Z,27.71
2023-09-05T21:05:10.146Z,27.70
2023-09-05T21:09:19.326Z,27.74
2023-09-05T21:11:21.246Z,27.76
2023-09-05T21:13:22.757Z,27.80
2023-09-05T21:15:24.891Z,27.79
2023-09-05T21:17:26.527Z,27.78
2023-09-05T21:21:36.118Z,27.79
2023-09-05T21:23:38.441Z,27.80
2023-09-05T21:25:39.895Z,27.80
2023-09-05T21:27:41.738Z,27.79
2023-09-05T21:29:43.294Z,27.79
2023-09-05T21:31:44.832Z,27.78
2023-09-05T21:33:46.538Z,27.81
2023-09-05T21:35:48.684Z,27.83
2023-09-05T21:37:50.483Z,27.85
2023-09-05T21:39:52.028Z,27.85
2023-09-05T21:41:54.238Z,27.84
2023-09-05T21:43:55.758Z,27.85
2023-09-05T21:45:57.468Z,27.85
2023-09-05T21:47:59.164Z,27.80
2023-09-05T21:50:00.768Z,27.59
2023-09-05T21:52:02.441Z,27.42
2023-09-05T21:56:10.718Z,27.23
2023-09-05T21:58:12.158Z,27.16
2023-09-05T22:00:28.875Z,27.10
2023-09-05T22:02:32.027Z,27.03
2023-09-05T22:04:33.567Z,26.97
2023-09-05T22:06:35.137Z,26.92
2023-09-05T22:08:36.694Z,26.86
2023-09-05T22:10:38.164Z,26.82
2023-09-05T22:12:43.104Z,26.76
2023-09-05T22:14:44.655Z,26.72
2023-09-05T22:16:46.279Z,26.68
2023-09-05T22:18:47.830Z,26.62
2023-09-05T22:20:58.621Z,26.59
2023-09-05T22:23:01.183Z,26.56
2023-09-05T22:25:04.138Z,26.52
2023-09-05T22:27:05.771Z,26.49
2023-09-05T22:29:07.379Z,26.44
2023-09-05T22:31:08.908Z,26.43
2023-09-05T22:33:10.494Z,26.39
2023-09-05T22:35:12.184Z,26.37
2023-09-05T22:37:13.632Z,26.34
2023-09-05T22:39:15.064Z,26.28
2023-09-05T22:41:18.600Z,26.29
2023-09-05T22:43:20.097Z,26.27
2023-09-05T22:45:21.644Z,26.24
2023-09-05T22:47:23.212Z,26.23
2023-09-05T22:49:27.361Z,26.22
2023-09-05T22:51:28.900Z,26.18
2023-09-05T22:53:31.228Z,26.15
2023-09-05T22:55:39.411Z,26.15
2023-09-05T22:57:43.351Z,26.13
2023-09-05T22:59:45.013Z,26.12
2023-09-05T23:01:46.658Z,26.10
2023-09-05T23:03:48.420Z,26.08
2023-09-05T23:05:50.032Z,26.06
2023-09-05T23:07:51.523Z,26.04
2023-09-05T23:09:53.094Z,26.04
2023-09-05T23:11:54.673Z,26.02
2023-09-05T23:13:56.369Z,26.01
2023-09-05T23:15:58.320Z,25.99
2023-09-05T23:18:00.026Z,25.99
2023-09-05T23:20:01.672Z,25.97
2023-09-05T23:22:04.389Z,25.95
2023-09-05T23:24:06.105Z,25.93
2023-09-05T23:26:10.020Z,25.93
2023-09-05T23:28:11.928Z,25.91
2023-09-05T23:30:14.248Z,25.89
2023-09-05T23:32:18.001Z,25.88
2023-09-05T23:34:19.576Z,25.86
2023-09-05T23:36:21.074Z,25.84
2023-09-05T23:38:24.880Z,25.84
2023-09-05T23:40:26.762Z,25.83
2023-09-05T23:42:32.026Z,25.81
2023-09-05T23:44:33.759Z,25.79
2023-09-05T23:46:36.507Z,25.77
2023-09-05T23:48:38.207Z,25.77
2023-09-05T23:50:39.724Z,25.76
2023-09-05T23:52:41.253Z,25.75
2023-09-05T23:54:42.775Z,25.74
2023-09-05T23:56:44.284Z,25.73
2023-09-05T23:58:45.916Z,25.72
